createdAt,value
2023-04-30T00:01:32.109Z,9.43
2023-04-30T00:06:29.660Z,11.80
2023-04-30T00:11:26.499Z,10.68
2023-04-30T00:16:23.346Z,14.23
2023-04-30T00:21:20.106Z,13.93
2023-04-30T00:26:17.534Z,14.90
2023-04-30T00:31:18.054Z,15.18
2023-04-30T00:36:14.815Z,10.25
2023-04-30T00:41:11.835Z,9.75
2023-04-30T00:46:09.342Z,8.60
2023-04-30T00:51:07.016Z,12.45
2023-04-30T00:56:05.543Z,13.45
2023-04-30T01:01:03.589Z,12.40
2023-04-30T01:06:01.227Z,14.80
2023-04-30T01:11:11.927Z,16.52
2023-04-30T01:16:15.824Z,14.90
2023-04-30T01:21:15.388Z,11.88
2023-04-30T01:26:15.698Z,14.48
2023-04-30T01:31:14.298Z,13.23
2023-04-30T01:36:35.989Z,11.68
2023-04-30T01:41:41.588Z,13.23
2023-04-30T01:46:41.202Z,14.10
2023-04-30T01:51:41.198Z,13.32
2023-04-30T01:56:44.322Z,10.40
2023-04-30T02:01:41.940Z,9.93
2023-04-30T02:06:38.957Z,9.32
2023-04-30T02:11:35.816Z,8.55
2023-04-30T02:16:32.911Z,8.60
2023-04-30T02:21:31.253Z,8.82
2023-04-30T02:26:28.093Z,10.63
2023-04-30T02:31:24.878Z,9.85
2023-04-30T02:36:21.663Z,10.32
2023-04-30T02:41:24.029Z,8.07
2023-04-30T02:46:20.976Z,9.52
2023-04-30T02:51:18.121Z,11.52
2023-04-30T02:56:15.247Z,10.40
2023-04-30T03:01:13.814Z,7.82
2023-04-30T03:06:10.826Z,10.32
2023-04-30T03:11:07.754Z,13.07
2023-04-30T03:16:05.164Z,10.18
2023-04-30T03:21:03.100Z,9.00
2023-04-30T03:26:00.111Z,8.63
2023-04-30T03:31:04.669Z,6.95
2023-04-30T03:36:02.279Z,7.55
2023-04-30T03:40:59.140Z,15.00
2023-04-30T03:45:56.170Z,10.48
2023-04-30T03:50:53.082Z,11.77
2023-04-30T03:55:50.777Z,9.60
2023-04-30T04:00:48.032Z,13.73
2023-04-30T04:05:45.487Z,14.48
2023-04-30T04:10:42.517Z,14.80
2023-04-30T04:15:40.884Z,17.15
2023-04-30T04:20:38.313Z,15.25
2023-04-30T04:25:35.361Z,16.30
2023-04-30T04:30:34.315Z,16.65
2023-04-30T04:35:32.151Z,10.07
2023-04-30T04:40:29.872Z,14.73
2023-04-30T04:45:28.778Z,15.32
2023-04-30T04:50:46.268Z,12.90
2023-04-30T04:55:43.799Z,15.77
2023-04-30T05:00:40.939Z,13.15
2023-04-30T05:05:38.724Z,12.68
2023-04-30T05:10:35.676Z,11.23
2023-04-30T05:15:33.286Z,17.02
2023-04-30T05:20:30.103Z,13.70
2023-04-30T05:25:27.056Z,12.63
2023-04-30T05:30:23.820Z,8.45
2023-04-30T05:35:21.264Z,6.45
2023-04-30T05:40:20.473Z,6.65
2023-04-30T05:45:17.564Z,9.80
2023-04-30T05:50:17.273Z,11.57
2023-04-30T05:55:14.835Z,9.95
2023-04-30T06:00:13.136Z,7.18
2023-04-30T06:05:10.239Z,9.25
2023-04-30T06:10:10.419Z,8.80
2023-04-30T06:15:11.953Z,5.43
2023-04-30T06:20:09.802Z,7.00
2023-04-30T06:25:09.160Z,5.55
2023-04-30T06:30:08.841Z,4.53
2023-04-30T06:35:06.455Z,4.78
2023-04-30T06:40:04.701Z,5.47
2023-04-30T06:45:01.990Z,12.32
2023-04-30T06:49:59.570Z,5.75
2023-04-30T06:54:56.519Z,5.43
2023-04-30T06:59:53.641Z,5.78
2023-04-30T07:04:50.656Z,6.78
2023-04-30T07:09:49.708Z,6.28
2023-04-30T07:14:48.394Z,7.57
2023-04-30T07:19:47.993Z,5.03
2023-04-30T07:24:44.736Z,7.45
2023-04-30T07:29:42.187Z,8.73
2023-04-30T07:34:41.736Z,9.60
2023-04-30T07:39:39.084Z,9.90
2023-04-30T07:44:35.979Z,6.20
2023-04-30T07:49:33.622Z,5.93
2023-04-30T07:54:30.603Z,6.55
2023-04-30T07:59:27.496Z,4.55
2023-04-30T08:04:24.569Z,4.85
2023-04-30T08:09:22.225Z,7.75
2023-04-30T08:14:20.789Z,5.25
2023-04-30T08:19:17.563Z,4.80
2023-04-30T08:24:14.301Z,7.80
2023-04-30T08:29:11.698Z,6.22
2023-04-30T08:34:08.556Z,5.60
2023-04-30T08:39:05.381Z,6.20
2023-04-30T08:44:03.992Z,6.15
2023-04-30T08:49:02.293Z,3.45
2023-04-30T08:53:59.078Z,4.93
2023-04-30T08:58:55.920Z,5.10
2023-04-30T09:03:52.914Z,8.32
2023-04-30T09:08:52.014Z,5.53
2023-04-30T09:13:51.431Z,4.30
2023-04-30T09:18:48.877Z,5.32
2023-04-30T09:23:56.381Z,4.75
2023-04-30T09:28:56.152Z,6.15
2023-04-30T09:33:53.584Z,4.82
2023-04-30T09:38:50.504Z,5.75
2023-04-30T09:43:50.711Z,4.15
2023-04-30T09:48:55.710Z,7.13
2023-04-30T09:53:53.199Z,5.30
2023-04-30T09:58:52.633Z,6.32
2023-04-30T10:03:50.050Z,2.85
2023-04-30T10:08:48.789Z,4.57
2023-04-30T10:13:52.566Z,3.35
2023-04-30T10:18:52.166Z,4.85
2023-04-30T10:23:49.492Z,11.73
2023-04-30T10:28:49.822Z,8.45
2023-04-30T10:33:54.544Z,7.97
2023-04-30T10:38:52.662Z,4.40
2023-04-30T10:43:49.526Z,5.00
2023-04-30T10:48:47.411Z,3.40
2023-04-30T10:53:46.556Z,6.38
2023-04-30T10:58:44.699Z,5.57
2023-04-30T11:03:43.419Z,5.38
2023-04-30T11:08:45.662Z,5.35
2023-04-30T11:13:45.662Z,4.63
2023-04-30T11:18:44.690Z,4.53
2023-04-30T11:23:49.248Z,6.00
2023-04-30T11:28:51.882Z,4.20
2023-04-30T11:33:50.683Z,5.53
2023-04-30T11:38:48.448Z,5.35
2023-04-30T11:43:45.346Z,6.97
2023-04-30T11:48:45.206Z,5.50
2023-04-30T11:53:42.830Z,4.43
2023-04-30T11:58:40.539Z,4.95
2023-04-30T12:03:42.639Z,6.80
2023-04-30T12:08:41.771Z,6.85
2023-04-30T12:13:38.710Z,6.05
2023-04-30T12:18:36.468Z,5.07
2023-04-30T12:23:36.270Z,7.05
2023-04-30T12:28:34.590Z,6.80
2023-04-30T12:33:31.766Z,17.17
2023-04-30T12:38:29.343Z,4.35
2023-04-30T12:43:26.263Z,5.30
2023-04-30T12:48:24.764Z,4.28
2023-04-30T12:53:25.279Z,5.82
2023-04-30T12:58:22.875Z,10.90
2023-04-30T13:03:22.783Z,6.63
2023-04-30T13:08:20.346Z,5.85
2023-04-30T13:13:19.637Z,5.70
2023-04-30T13:18:17.188Z,5.22
2023-04-30T13:23:13.968Z,4.45
2023-04-30T13:28:10.720Z,5.05
2023-04-30T13:33:11.539Z,7.03
2023-04-30T13:38:09.538Z,4.97
2023-04-30T13:43:07.360Z,6.13
2023-04-30T13:48:04.700Z,5.65
2023-04-30T13:53:01.538Z,5.97
2023-04-30T13:57:59.506Z,7.93
2023-04-30T14:02:57.890Z,3.40
2023-04-30T14:07:54.756Z,4.32
2023-04-30T14:12:51.473Z,11.05
2023-04-30T14:17:49.058Z,6.93
2023-04-30T14:22:48.358Z,5.13
2023-04-30T14:27:45.229Z,5.65
2023-04-30T14:32:42.283Z,4.88
2023-04-30T14:37:39.884Z,6.30
2023-04-30T14:42:36.976Z,6.00
2023-04-30T14:47:33.871Z,4.05
2023-04-30T14:52:30.746Z,5.40
2023-04-30T14:57:29.192Z,4.47
2023-04-30T15:02:26.230Z,5.10
2023-04-30T15:07:23.345Z,5.90
2023-04-30T15:12:21.762Z,4.85
2023-04-30T15:17:20.064Z,6.55
2023-04-30T15:22:18.038Z,6.18
2023-04-30T15:27:14.919Z,6.07
2023-04-30T15:32:12.007Z,4.80
2023-04-30T15:37:09.621Z,3.50
2023-04-30T15:42:06.861Z,6.28
2023-04-30T15:47:03.932Z,6.22
2023-04-30T15:52:01.016Z,6.55
2023-04-30T15:56:59.127Z,6.25
2023-04-30T16:01:56.566Z,4.38
2023-04-30T16:06:55.483Z,5.07
2023-04-30T16:11:52.432Z,5.65
2023-04-30T16:16:49.946Z,6.07
2023-04-30T16:21:46.900Z,3.38
2023-04-30T16:26:43.908Z,7.63
2023-04-30T16:31:41.870Z,6.15
2023-04-30T16:36:41.683Z,7.32
2023-04-30T16:41:38.835Z,8.43
2023-04-30T16:46:36.138Z,5.78
2023-04-30T16:51:33.150Z,23.10
2023-04-30T16:56:33.297Z,10.68
2023-04-30T17:01:31.622Z,9.80
2023-04-30T17:06:28.726Z,36.05
2023-04-30T17:11:25.766Z,28.95
2023-04-30T17:16:23.843Z,38.00
2023-04-30T17:21:21.001Z,10.43
2023-04-30T17:26:17.961Z,15.48
2023-04-30T17:31:14.975Z,15.45
2023-04-30T17:36:12.894Z,26.35
2023-04-30T17:41:10.594Z,24.50
2023-04-30T17:46:07.489Z,15.43
2023-04-30T17:51:04.381Z,7.38
2023-04-30T17:56:02.020Z,9.02
2023-04-30T18:01:02.938Z,5.78
2023-04-30T18:05:59.881Z,5.45
2023-04-30T18:10:57.225Z,9.82
2023-04-30T18:15:55.065Z,10.45
2023-04-30T18:20:52.536Z,10.10
2023-04-30T18:25:49.534Z,10.98
2023-04-30T18:30:46.254Z,7.85
2023-04-30T18:35:49.139Z,9.30
2023-04-30T18:40:48.259Z,10.82
2023-04-30T18:45:45.250Z,12.05
2023-04-30T18:50:45.179Z,10.20
2023-04-30T18:55:46.252Z,12.50
2023-04-30T19:00:46.328Z,11.43
2023-04-30T19:05:43.450Z,8.30
2023-04-30T19:10:40.256Z,10.00
2023-04-30T19:15:37.972Z,14.10
2023-04-30T19:20:34.729Z,15.27
2023-04-30T19:25:31.504Z,9.32
2023-04-30T19:30:28.617Z,11.63
2023-04-30T19:35:26.213Z,9.30
2023-04-30T19:40:25.545Z,10.10
2023-04-30T19:45:22.303Z,10.25
2023-04-30T19:50:19.598Z,6.72
2023-04-30T19:55:17.295Z,7.43
2023-04-30T20:00:15.443Z,7.35
2023-04-30T20:05:12.625Z,7.53
2023-04-30T20:10:10.113Z,7.80
2023-04-30T20:15:08.681Z,5.90
2023-04-30T20:20:06.679Z,4.97
2023-04-30T20:25:04.240Z,6.45
2023-04-30T20:30:04.075Z,7.90
2023-04-30T20:35:02.180Z,15.15
2023-04-30T20:39:59.196Z,5.05
2023-04-30T20:44:56.284Z,3.60
2023-04-30T20:49:53.830Z,4.75
2023-04-30T20:54:51.658Z,5.80
2023-04-30T20:59:48.573Z,4.28
2023-04-30T21:04:45.572Z,4.80
2023-04-30T21:09:43.150Z,5.10
2023-04-30T21:14:42.670Z,3.85
2023-04-30T21:19:39.368Z,4.25
2023-04-30T21:24:36.508Z,6.43
2023-04-30T21:29:34.333Z,5.30
2023-04-30T21:34:32.295Z,7.05
2023-04-30T21:39:29.892Z,5.45
2023-04-30T21:44:26.627Z,5.05
2023-04-30T21:49:23.427Z,4.85
2023-04-30T21:54:20.911Z,6.75
2023-04-30T21:59:17.656Z,10.48
2023-04-30T22:04:14.786Z,6.38
2023-04-30T22:09:12.631Z,6.00
2023-04-30T22:14:10.203Z,4.75
2023-04-30T22:19:06.891Z,4.22
2023-04-30T22:24:03.833Z,7.38
2023-04-30T22:29:00.707Z,3.90
2023-04-30T22:33:59.238Z,4.40
2023-04-30T22:38:56.188Z,6.68
2023-04-30T22:43:53.180Z,5.28
2023-04-30T22:48:50.197Z,6.97
2023-04-30T22:53:47.817Z,5.93
2023-04-30T22:58:45.762Z,6.82
2023-04-30T23:03:42.594Z,6.72
2023-04-30T23:08:39.453Z,5.28
2023-04-30T23:13:37.249Z,5.97
2023-04-30T23:18:34.182Z,4.82
2023-04-30T23:23:31.572Z,5.68
2023-04-30T23:28:28.289Z,6.15
2023-04-30T23:33:26.196Z,6.28
2023-04-30T23:38:23.058Z,5.85
2023-04-30T23:43:19.767Z,7.10
2023-04-30T23:48:16.535Z,6.68
2023-04-30T23:53:16.497Z,6.25
2023-04-30T23:58:13.314Z,6.95
